Terminal Aerodrome Forecast
Issued by NWS Billings, MT

Home | Current Version | Previous Version | Text Only | Print | Product List | Glossary Off
Versions: 1 2 3 4 5 6 7 8 9 10 11 12 13 14 15 16 17 18 19 20 21 22 23 24 25 26 27 28 29 30 31

000
FTUS45 KBYZ 251120
TAFMLS
TAF
KMLS 251120Z 2512/2612 18010KT P6SM SCT040 BKN100
     FM251400 VRB05KT P6SM VCSH SCT030 OVC070
     FM251700 30013KT P6SM -RA FEW015 BKN030 OVC060
      TEMPO 2517/2521 4SM -RA OVC020
     FM260000 30010KT P6SM SCT020 BKN100
     FM261000 05006KT P6SM VCFG FEW005 SCT030 BKN200=

USA.gov is the U.S. government's official web portal to all federal, state and local government web resources and services.